No particular awareness of the weather is required.    There are no Weather-warnings


Meteo18 Weather Cam more information Meteo18 Weather Cam


Thunder radar more information blitzortung!


Rain radar more information rain snow radar


Visit our other weather sites:

Template documentation
and downloads

And another site



Weather Underground History page Text

Daily Summary for August 29, 2017 Units:  English    Metric   Both
« Previous Day
Next Day »
Daily Weekly Monthly Yearly Custom
  High: Low: Average:
Temperature: TemperatureC °F 18.8 °F 27.3 °F
Dew Point: DewpointC °F 13.4 °F 16.3 °F
Humidity: Humidity % 27 % 54 %
Wind Speed: WindSpeedKMH mph 0.0 mph 2.7 mph
Wind Gust: WindSpeedGustKMH mph - -
Wind:- - South
Pressure: PressurehPa in 1010.7 in -
Precipitation: 0.0 in    
Historical Graphs
 
 
Tabular Data for August 29, 2017
Time Temperature Dew Point Pressure Wind Wind Speed Wind Gust Humidity Rainfall Rate (Hourly)
TemperatureC °F DewpointC °F PressurehPa in Calm     Humidity % HourlyPrecipMM in
00:02 24.5 °F 16.5 °F 1016.1 in North 8.0 mph 9.7 mph 61 % 0.0 in
00:12 24.5 °F 16.5 °F 1016.1 in NE 1.6 mph 9.7 mph 61 % 0.0 in
00:17 24.4 °F 16.4 °F 1016.1 in Calm   11.3 mph 61 % 0.0 in
00:22 24.4 °F 16.4 °F 1016.1 in ENE 3.2 mph 11.3 mph 61 % 0.0 in
00:32 24.2 °F 16.2 °F 1016.1 in Calm   9.7 mph 61 % 0.0 in
00:42 23.9 °F 16.2 °F 1016.1 in North 3.2 mph 9.7 mph 62 % 0.0 in
00:52 23.9 °F 16.2 °F 1016.1 in ENE 6.4 mph 9.7 mph 62 % 0.0 in
00:57 23.8 °F 16.3 °F 1015.8 in NNE 9.7 mph 9.7 mph 63 % 0.0 in
01:02 23.8 °F 16.3 °F 1015.8 in NE 9.7 mph 9.7 mph 63 % 0.0 in
01:12 23.7 °F 16.2 °F 1015.8 in NNW 3.2 mph 11.3 mph 63 % 0.0 in
01:17 23.7 °F 16.5 °F 1015.8 in NNE 3.2 mph 9.7 mph 64 % 0.0 in
01:22 23.7 °F 16.5 °F 1015.8 in Calm   9.7 mph 64 % 0.0 in
01:27 23.6 °F 16.4 °F 1015.8 in WNW 1.6 mph 9.7 mph 64 % 0.0 in
01:32 23.3 °F 16.3 °F 1015.8 in NW 4.8 mph 9.7 mph 65 % 0.0 in
01:37 23.2 °F 16.3 °F 1015.8 in NNW 1.6 mph 6.4 mph 65 % 0.0 in
01:42 23.4 °F 16.4 °F 1015.8 in Calm   4.8 mph 65 % 0.0 in
01:47 23.4 °F 16.4 °F 1015.8 in Calm   8.0 mph 65 % 0.0 in
01:52 23.4 °F 16.4 °F 1015.8 in North 1.6 mph 8.0 mph 65 % 0.0 in
01:57 23.3 °F 16.3 °F 1015.8 in NNE 1.6 mph 8.0 mph 65 % 0.0 in
02:02 23.3 °F 16.3 °F 1015.5 in Calm   6.4 mph 65 % 0.0 in
02:12 23.3 °F 16.3 °F 1015.5 in Calm   6.4 mph 65 % 0.0 in
02:17 23.3 °F 16.3 °F 1015.8 in NNE 1.6 mph 6.4 mph 65 % 0.0 in
02:22 23.3 °F 16.3 °F 1015.5 in NNE 1.6 mph 4.8 mph 65 % 0.0 in
02:27 23.1 °F 16.4 °F 1015.5 in Calm   4.8 mph 66 % 0.0 in
02:32 22.7 °F 16.3 °F 1015.5 in Calm   4.8 mph 67 % 0.0 in
02:37 22.2 °F 16.2 °F 1015.5 in WNW 3.2 mph 4.8 mph 69 % 0.0 in
02:42 21.9 °F 16.4 °F 1015.5 in WNW 3.2 mph 3.2 mph 71 % 0.0 in
02:52 22.3 °F 16.3 °F 1015.5 in Calm   3.2 mph 69 % 0.0 in
02:57 22.3 °F 16.3 °F 1015.5 in North 1.6 mph 3.2 mph 69 % 0.0 in
03:02 22.3 °F 16.3 °F 1015.5 in North 1.6 mph 3.2 mph 69 % 0.0 in
03:12 22.2 °F 16.5 °F 1015.1 in Calm   3.2 mph 70 % 0.0 in
03:17 22.1 °F 16.4 °F 1015.1 in Calm   1.6 mph 70 % 0.0 in
03:22 22.2 °F 16.5 °F 1015.5 in NNW 1.6 mph 1.6 mph 70 % 0.0 in
03:32 22.2 °F 16.5 °F 1015.1 in NNW 1.6 mph 3.2 mph 70 % 0.0 in
03:37 22.1 °F 16.4 °F 1015.1 in NNW 1.6 mph 3.2 mph 70 % 0.0 in
03:42 22.1 °F 16.4 °F 1015.1 in NNW 1.6 mph 3.2 mph 70 % 0.0 in
03:47 22.0 °F 16.3 °F 1015.1 in NNE 1.6 mph 3.2 mph 70 % 0.0 in
03:52 21.8 °F 16.3 °F 1015.1 in NNE 1.6 mph 4.8 mph 71 % 0.0 in
03:57 21.6 °F 16.3 °F 1015.1 in Calm   4.8 mph 72 % 0.0 in
04:02 21.6 °F 16.3 °F 1014.8 in Calm   4.8 mph 72 % 0.0 in
04:12 21.7 °F 16.4 °F 1014.8 in Calm   3.2 mph 72 % 0.0 in
04:17 21.7 °F 16.4 °F 1014.8 in NNW 1.6 mph 3.2 mph 72 % 0.0 in
04:22 21.7 °F 16.4 °F 1014.8 in Calm   3.2 mph 72 % 0.0 in
04:27 21.4 °F 16.4 °F 1014.8 in NW 3.2 mph 3.2 mph 73 % 0.0 in
04:32 21.0 °F 16.4 °F 1014.8 in NW 1.6 mph 3.2 mph 75 % 0.0 in
04:42 21.2 °F 16.4 °F 1014.8 in Calm   3.2 mph 74 % 0.0 in
04:47 20.8 °F 16.2 °F 1014.8 in Calm   1.6 mph 75 % 0.0 in
04:52 20.6 °F 16.2 °F 1014.8 in Calm   1.6 mph 76 % 0.0 in
04:57 20.7 °F 16.3 °F 1014.8 in North 1.6 mph 1.6 mph 76 % 0.0 in
05:02 20.8 °F 16.2 °F 1014.8 in NW 1.6 mph 3.2 mph 75 % 0.0 in
05:07 20.9 °F 16.1 °F 1014.8 in NNW 3.2 mph 3.2 mph 74 % 0.0 in
05:22 20.8 °F 16.2 °F 1014.8 in North 1.6 mph 3.2 mph 75 % 0.0 in
05:32 20.7 °F 16.1 °F 1014.4 in North 1.6 mph 3.2 mph 75 % 0.0 in
05:42 20.3 °F 16.1 °F 1014.4 in North 1.6 mph 3.2 mph 77 % 0.0 in
05:52 20.3 °F 15.9 °F 1014.4 in NNW 1.6 mph 3.2 mph 76 % 0.0 in
05:57 20.3 °F 15.9 °F 1014.4 in Calm   3.2 mph 76 % 0.0 in
06:02 20.2 °F 16.0 °F 1014.4 in Calm   3.2 mph 77 % 0.0 in
06:07 20.1 °F 15.9 °F 1014.4 in Calm   3.2 mph 77 % 0.0 in
06:12 20.0 °F 15.8 °F 1014.4 in Calm   1.6 mph 77 % 0.0 in
06:17 19.9 °F 15.9 °F 1014.4 in NNW 1.6 mph 1.6 mph 78 % 0.0 in
06:22 19.8 °F 15.9 °F 1014.4 in Calm   1.6 mph 78 % 0.0 in
06:32 19.8 °F 15.9 °F 1014.4 in Calm   1.6 mph 78 % 0.0 in
06:37 19.7 °F 15.8 °F 1014.4 in Calm   1.6 mph 78 % 0.0 in
06:42 19.6 °F 15.9 °F 1014.4 in Calm   1.6 mph 79 % 0.0 in
06:47 19.4 °F 15.9 °F 1014.4 in North 1.6 mph 1.6 mph 80 % 0.0 in
06:57 18.9 °F 15.8 °F 1014.4 in NNE 1.6 mph 3.2 mph 82 % 0.0 in
07:02 18.8 °F 15.7 °F 1014.4 in Calm   3.2 mph 82 % 0.0 in
07:07 18.9 °F 15.8 °F 1014.4 in NNW 1.6 mph 3.2 mph 82 % 0.0 in
07:12 19.0 °F 15.9 °F 1014.4 in Calm   3.2 mph 82 % 0.0 in
07:17 18.9 °F 15.8 °F 1014.4 in Calm   3.2 mph 82 % 0.0 in
07:22 18.9 °F 15.8 °F 1014.4 in Calm   3.2 mph 82 % 0.0 in
07:32 19.1 °F 15.8 °F 1014.4 in Calm     81 % 0.0 in
07:37 19.0 °F 15.7 °F 1014.4 in Calm     81 % 0.0 in
07:42 19.1 °F 15.8 °F 1014.4 in Calm   3.2 mph 81 % 0.0 in
07:47 19.1 °F 15.8 °F 1014.4 in North 1.6 mph 3.2 mph 81 % 0.0 in
07:52 19.2 °F 15.9 °F 1014.4 in Calm   3.2 mph 81 % 0.0 in
07:57 19.3 °F 16.0 °F 1014.4 in Calm   3.2 mph 81 % 0.0 in
08:02 19.4 °F 15.9 °F 1014.4 in Calm   3.2 mph 80 % 0.0 in
08:12 19.7 °F 16.2 °F 1014.4 in Calm   3.2 mph 80 % 0.0 in
08:17 20.0 °F 16.2 °F 1014.4 in Calm   3.2 mph 79 % 0.0 in
08:22 20.2 °F 16.4 °F 1014.4 in Calm   1.6 mph 79 % 0.0 in
08:32 20.8 °F 16.6 °F 1014.4 in Calm     77 % 0.0 in
08:37 21.0 °F 16.6 °F 1014.4 in Calm     76 % 0.0 in
08:42 21.3 °F 16.9 °F 1014.4 in Calm   3.2 mph 76 % 0.0 in
08:52 21.6 °F 16.8 °F 1014.4 in NNE 4.8 mph 4.8 mph 74 % 0.0 in
08:57 21.7 °F 16.9 °F 1014.4 in NNE 1.6 mph 3.2 mph 74 % 0.0 in
09:02 21.9 °F 17.1 °F 1014.4 in ENE 3.2 mph 4.8 mph 74 % 0.0 in
09:12 22.5 °F 17.4 °F 1014.1 in Calm   4.8 mph 73 % 0.0 in
09:17 22.8 °F 17.5 °F 1014.4 in North 3.2 mph 4.8 mph 72 % 0.0 in
09:22 23.2 °F 17.4 °F 1014.4 in North 4.8 mph 4.8 mph 70 % 0.0 in
09:27 23.3 °F 17.1 °F 1014.4 in Calm   4.8 mph 68 % 0.0 in
09:32 23.6 °F 17.3 °F 1014.4 in Calm   6.4 mph 68 % 0.0 in
09:42 24.6 °F 17.8 °F 1014.4 in Calm   4.8 mph 66 % 0.0 in
09:47 25.2 °F 17.4 °F 1014.4 in NE 1.6 mph 4.8 mph 62 % 0.0 in
09:52 25.0 °F 17.2 °F 1014.4 in NNE 1.6 mph 3.2 mph 62 % 0.0 in
10:02 25.2 °F 17.1 °F 1014.4 in ENE 3.2 mph 4.8 mph 61 % 0.0 in
10:12 25.7 °F 16.8 °F 1014.4 in ENE 3.2 mph 8.0 mph 58 % 0.0 in
10:17 25.8 °F 17.2 °F 1014.4 in NE 1.6 mph 8.0 mph 59 % 0.0 in
10:22 26.1 °F 16.9 °F 1014.4 in East 1.6 mph 6.4 mph 57 % 0.0 in
10:32 26.8 °F 16.7 °F 1014.8 in ENE 1.6 mph 6.4 mph 54 % 0.0 in
10:42 27.3 °F 16.9 °F 1014.8 in ENE 3.2 mph 4.8 mph 53 % 0.0 in
11:02 27.7 °F 16.9 °F 1014.8 in ENE 3.2 mph 4.8 mph 52 % 0.0 in
11:07 27.8 °F 17.3 °F 1014.8 in East 1.6 mph 4.8 mph 53 % 0.0 in
11:12 28.2 °F 17.7 °F 1014.4 in Calm   6.4 mph 53 % 0.0 in
11:17 28.8 °F 17.7 °F 1014.8 in Calm   6.4 mph 51 % 0.0 in
11:22 29.3 °F 17.5 °F 1014.8 in East 3.2 mph 4.8 mph 49 % 0.0 in
11:32 29.7 °F 17.2 °F 1014.8 in West 3.2 mph 6.4 mph 47 % 0.0 in
11:42 29.9 °F 17.4 °F 1014.8 in ESE 1.6 mph 8.0 mph 47 % 0.0 in
11:47 29.9 °F 17.4 °F 1014.8 in Calm   8.0 mph 47 % 0.0 in
11:52 30.1 °F 17.5 °F 1014.8 in Calm   6.4 mph 47 % 0.0 in
12:02 30.4 °F 17.1 °F 1014.4 in WSW 4.8 mph 8.0 mph 45 % 0.0 in
12:12 30.7 °F 17.4 °F 1014.4 in SSW 3.2 mph 9.7 mph 45 % 0.0 in
12:17 30.9 °F 17.6 °F 1014.4 in SSE 8.0 mph 9.7 mph 45 % 0.0 in
12:22 31.1 °F 17.4 °F 1014.4 in South 1.6 mph 11.3 mph 44 % 0.0 in
12:32 31.6 °F 16.7 °F 1014.1 in ESE 3.2 mph 11.3 mph 41 % 0.0 in
12:37 31.8 °F 16.5 °F 1014.1 in SSE 3.2 mph 9.7 mph 40 % 0.0 in
12:42 31.9 °F 17.0 °F 1014.1 in ENE 4.8 mph 9.7 mph 41 % 0.0 in
12:47 31.6 °F 16.0 °F 1014.1 in East 4.8 mph 9.7 mph 39 % 0.0 in
12:52 31.8 °F 16.5 °F 1014.1 in SE 4.8 mph 11.3 mph 40 % 0.0 in
13:02 32.1 °F 16.4 °F 1014.1 in Calm   11.3 mph 39 % 0.0 in
13:07 32.2 °F 16.5 °F 1013.8 in ESE 1.6 mph 11.3 mph 39 % 0.0 in
13:12 32.3 °F 15.8 °F 1013.8 in ENE 4.8 mph 9.7 mph 37 % 0.0 in
13:17 32.2 °F 16.1 °F 1013.8 in ESE 8.0 mph 9.7 mph 38 % 0.0 in
13:22 32.2 °F 16.5 °F 1013.4 in SE 3.2 mph 11.3 mph 39 % 0.0 in
13:32 32.6 °F 17.2 °F 1013.4 in Calm   11.3 mph 40 % 0.0 in
13:37 32.9 °F 16.3 °F 1013.4 in ENE 4.8 mph 11.3 mph 37 % 0.0 in
13:42 32.8 °F 16.2 °F 1013.4 in ENE 4.8 mph 11.3 mph 37 % 0.0 in
13:52 33.0 °F 16.4 °F 1013.4 in ESE 1.6 mph 16.1 mph 37 % 0.0 in
14:02 32.9 °F 16.7 °F 1013.4 in East 4.8 mph 17.7 mph 38 % 0.0 in
14:12 33.2 °F 16.5 °F 1013.1 in East 4.8 mph 17.7 mph 37 % 0.0 in
14:17 33.3 °F 16.6 °F 1013.1 in SSE 3.2 mph 17.7 mph 37 % 0.0 in
14:27 33.6 °F 16.9 °F 1013.1 in ENE 4.8 mph 9.7 mph 37 % 0.0 in
14:32 33.4 °F 16.3 °F 1013.1 in SE 1.6 mph 14.5 mph 36 % 0.0 in
14:42 33.4 °F 16.3 °F 1013.1 in SE 1.6 mph 16.1 mph 36 % 0.0 in
14:52 34.1 °F 15.1 °F 1012.8 in SW 3.2 mph 16.1 mph 32 % 0.0 in
14:57 34.4 °F 15.3 °F 1012.8 in SW 3.2 mph 16.1 mph 32 % 0.0 in
15:02 34.3 °F 14.7 °F 1012.8 in Calm   11.3 mph 31 % 0.0 in
15:07 34.5 °F 14.4 °F 1012.8 in SSE 3.2 mph 11.3 mph 30 % 0.0 in
15:12 34.7 °F 15.6 °F 1012.8 in ENE 6.4 mph 11.3 mph 32 % 0.0 in
15:17 34.5 °F 13.9 °F 1012.8 in SSE 6.4 mph 11.3 mph 29 % 0.0 in
15:22 34.4 °F 14.8 °F 1012.8 in ESE 3.2 mph 12.9 mph 31 % 0.0 in
15:32 34.5 °F 13.9 °F 1012.4 in SW 4.8 mph 12.9 mph 29 % 0.0 in
15:42 34.5 °F 14.4 °F 1012.4 in ESE 4.8 mph 11.3 mph 30 % 0.0 in
15:47 34.5 °F 14.4 °F 1012.4 in SSW 1.6 mph 11.3 mph 30 % 0.0 in
15:52 34.6 °F 14.0 °F 1012.1 in SE 8.0 mph 11.3 mph 29 % 0.0 in
15:57 34.9 °F 14.7 °F 1012.1 in SSW 1.6 mph 12.9 mph 30 % 0.0 in
16:02 34.6 °F 14.0 °F 1012.1 in South 1.6 mph 12.9 mph 29 % 0.0 in
16:07 34.7 °F 14.1 °F 1012.1 in SE 6.4 mph 12.9 mph 29 % 0.0 in
16:12 34.7 °F 13.5 °F 1012.1 in ENE 1.6 mph 12.9 mph 28 % 0.0 in
16:17 34.6 °F 13.4 °F 1012.1 in West 1.6 mph 11.3 mph 28 % 0.0 in
16:22 34.8 °F 14.1 °F 1012.1 in ESE 4.8 mph 11.3 mph 29 % 0.0 in
16:27 34.9 °F 13.7 °F 1011.7 in Calm   11.3 mph 28 % 0.0 in
16:32 35.3 °F 14.0 °F 1012.1 in Calm   11.3 mph 28 % 0.0 in
16:37 35.3 °F 14.0 °F 1011.7 in East 1.6 mph 11.3 mph 28 % 0.0 in
16:42 35.4 °F 13.5 °F 1011.7 in NNE 4.8 mph 11.3 mph 27 % 0.0 in
16:47 35.4 °F 14.1 °F 1011.7 in ESE 6.4 mph 11.3 mph 28 % 0.0 in
16:52 35.2 °F 14.5 °F 1011.7 in East 1.6 mph 11.3 mph 29 % 0.0 in
16:57 35.2 °F 13.9 °F 1011.7 in East 3.2 mph 11.3 mph 28 % 0.0 in
17:02 34.9 °F 14.2 °F 1011.7 in ESE 1.6 mph 11.3 mph 29 % 0.0 in
17:12 35.2 °F 13.9 °F 1011.4 in South 1.6 mph 11.3 mph 28 % 0.0 in
17:17 35.2 °F 14.5 °F 1011.4 in Calm   11.3 mph 29 % 0.0 in
17:22 35.3 °F 14.0 °F 1011.4 in SW 4.8 mph 8.0 mph 28 % 0.0 in
17:27 35.2 °F 14.5 °F 1011.4 in Calm   8.0 mph 29 % 0.0 in
17:32 35.3 °F 14.6 °F 1011.4 in SE 4.8 mph 11.3 mph 29 % 0.0 in
17:37 35.3 °F 14.0 °F 1011.4 in WSW 8.0 mph 11.3 mph 28 % 0.0 in
17:42 35.2 °F 13.9 °F 1011.4 in SSE 3.2 mph 11.3 mph 28 % 0.0 in
17:47 35.4 °F 14.1 °F 1011.4 in South 3.2 mph 9.7 mph 28 % 0.0 in
17:52 35.2 °F 14.5 °F 1011.1 in Calm   9.7 mph 29 % 0.0 in
17:57 35.3 °F 14.6 °F 1011.1 in SSW 1.6 mph 9.7 mph 29 % 0.0 in
18:02 35.6 °F 14.3 °F 1011.1 in SSW 3.2 mph 8.0 mph 28 % 0.0 in
18:12 35.0 °F 14.3 °F 1011.1 in ENE 1.6 mph 8.0 mph 29 % 0.0 in
18:17 34.9 °F 14.7 °F 1011.1 in Calm   11.3 mph 30 % 0.0 in
18:22 35.3 °F 14.6 °F 1011.1 in East 1.6 mph 11.3 mph 29 % 0.0 in
18:32 34.6 °F 14.0 °F 1011.1 in ENE 6.4 mph 6.4 mph 29 % 0.0 in
18:42 34.7 °F 15.1 °F 1011.1 in Calm   14.5 mph 31 % 0.0 in
18:47 34.7 °F 15.1 °F 1011.1 in ENE 8.0 mph 9.7 mph 31 % 0.0 in
18:52 34.5 °F 14.9 °F 1011.1 in Calm   9.7 mph 31 % 0.0 in
19:02 34.8 °F 15.7 °F 1010.7 in ENE 1.6 mph 9.7 mph 32 % 0.0 in
19:12 34.1 °F 14.6 °F 1010.7 in Calm   6.4 mph 31 % 0.0 in
19:22 33.7 °F 15.2 °F 1011.1 in Calm   6.4 mph 33 % 0.0 in
19:27 33.8 °F 15.7 °F 1011.1 in Calm   6.4 mph 34 % 0.0 in
19:32 33.9 °F 15.4 °F 1011.1 in Calm   4.8 mph 33 % 0.0 in
19:37 34.0 °F 16.4 °F 1011.1 in Calm   1.6 mph 35 % 0.0 in
19:42 33.9 °F 16.3 °F 1011.1 in Calm   1.6 mph 35 % 0.0 in
19:47 33.7 °F 15.7 °F 1011.1 in Calm     34 % 0.0 in
19:52 33.3 °F 15.8 °F 1011.1 in Calm   4.8 mph 35 % 0.0 in
20:02 32.8 °F 15.8 °F 1011.1 in Calm   8.0 mph 36 % 0.0 in
20:12 32.2 °F 16.5 °F 1011.1 in WSW 1.6 mph 6.4 mph 39 % 0.0 in
20:17 31.7 °F 16.8 °F 1010.7 in Calm   4.8 mph 41 % 0.0 in
20:22 31.1 °F 16.7 °F 1011.1 in Calm   3.2 mph 42 % 0.0 in
20:32 30.1 °F 17.2 °F 1011.1 in Calm   3.2 mph 46 % 0.0 in
20:37 29.8 °F 17.3 °F 1011.1 in WSW 3.2 mph 3.2 mph 47 % 0.0 in
20:42 29.7 °F 16.8 °F 1011.1 in Calm   1.6 mph 46 % 0.0 in
20:52 29.2 °F 17.1 °F 1011.4 in SSW 3.2 mph 4.8 mph 48 % 0.0 in
21:02 29.6 °F 17.1 °F 1011.7 in SW 8.0 mph 11.3 mph 47 % 0.0 in
21:12 29.8 °F 17.6 °F 1011.7 in West 6.4 mph 11.3 mph 48 % 0.0 in
21:17 29.7 °F 18.2 °F 1011.7 in WSW 4.8 mph 14.5 mph 50 % 0.0 in
21:22 29.6 °F 18.4 °F 1011.7 in SW 8.0 mph 16.1 mph 51 % 0.0 in
21:27 29.3 °F 18.4 °F 1012.1 in SW 4.8 mph 16.1 mph 52 % 0.0 in
21:32 29.1 °F 18.5 °F 1012.1 in SSW 9.7 mph 16.1 mph 53 % 0.0 in
21:37 28.5 °F 18.3 °F 1012.1 in South 3.2 mph 12.9 mph 54 % 0.0 in
21:42 28.3 °F 18.7 °F 1012.1 in SW 20.9 mph 20.9 mph 56 % 0.0 in
21:52 28.7 °F 19.1 °F 1012.1 in SW 6.4 mph 17.7 mph 56 % 0.0 in
21:57 28.8 °F 19.1 °F 1012.1 in West 8.0 mph 17.7 mph 56 % 0.0 in
22:02 28.7 °F 19.3 °F 1011.7 in WSW 4.8 mph 17.7 mph 57 % 0.0 in
22:12 28.4 °F 19.3 °F 1011.7 in WSW 4.8 mph 17.7 mph 58 % 0.0 in
22:17 28.3 °F 19.5 °F 1012.1 in WSW 8.0 mph 17.7 mph 59 % 0.0 in
22:22 28.3 °F 19.5 °F 1012.1 in WSW 4.8 mph 17.7 mph 59 % 0.0 in
22:27 28.3 °F 19.5 °F 1012.1 in West 11.3 mph 17.7 mph 59 % 0.0 in
22:32 28.2 °F 19.7 °F 1012.1 in West 9.7 mph 17.7 mph 60 % 0.0 in
22:37 28.1 °F 19.6 °F 1012.1 in West 9.7 mph 17.7 mph 60 % 0.0 in
22:42 28.0 °F 19.8 °F 1012.1 in WSW 6.4 mph 17.7 mph 61 % 0.0 in
22:47 27.8 °F 19.6 °F 1012.1 in SW 4.8 mph 17.7 mph 61 % 0.0 in
22:52 27.7 °F 19.8 °F 1011.7 in SW 3.2 mph 16.1 mph 62 % 0.0 in
22:57 27.6 °F 19.9 °F 1011.7 in West 6.4 mph 12.9 mph 63 % 0.0 in
23:02 27.4 °F 20.0 °F 1012.1 in WSW 6.4 mph 12.9 mph 64 % 0.0 in
23:12 26.8 °F 19.7 °F 1012.4 in WSW 11.3 mph 12.9 mph 65 % 0.0 in
23:17 26.7 °F 19.3 °F 1012.4 in WSW 6.4 mph 24.1 mph 64 % 0.0 in
23:22 26.6 °F 19.0 °F 1012.1 in WSW 8.0 mph 24.1 mph 63 % 0.0 in
23:32 26.6 °F 18.7 °F 1012.1 in WSW 19.3 mph 22.5 mph 62 % 0.0 in
23:42 26.5 °F 18.6 °F 1012.4 in WSW 3.2 mph 25.7 mph 62 % 0.0 in
23:52 26.4 °F 18.5 °F 1012.4 in WSW 16.1 mph 24.1 mph 62 % 0.0 in
Meteo18
Compliments of Weather Underground - 4 mb

Script developed by  Jim McMurry - jmcmurry@mwt.net Adapted for the template by  Wim van der Kuil - Leuven-Template.eu

You find our weather info also at:

European Weather Network

Weather Underground

Equipment we use:

Weather-station
Davis Vue

Weather-program
Meteobridge

Weather-server
Raspberry PI 2 B+

Provider
1 and 1

Davis Vue

Meteobridge

Raspberry PI 2 B+

1 and 1